createdAt,value
2022-10-18T00:02:12.291Z,22.80
2022-10-18T00:04:40.215Z,25.27
2022-10-18T00:07:07.231Z,26.67
2022-10-18T00:09:34.925Z,24.73
2022-10-18T00:12:01.540Z,24.52
2022-10-18T00:14:28.146Z,22.40
2022-10-18T00:16:54.569Z,23.83
2022-10-18T00:19:22.196Z,22.75
2022-10-18T00:21:51.331Z,21.98
2022-10-18T00:24:17.802Z,22.10
2022-10-18T00:26:44.695Z,23.17
2022-10-18T00:29:14.173Z,22.13
2022-10-18T00:31:41.267Z,23.55
2022-10-18T00:34:15.155Z,25.27
2022-10-18T00:36:42.510Z,23.97
2022-10-18T00:39:10.906Z,22.87
2022-10-18T00:41:38.236Z,27.02
2022-10-18T00:44:27.075Z,23.10
2022-10-18T00:46:56.976Z,25.95
2022-10-18T00:49:27.495Z,25.40
2022-10-18T00:51:59.407Z,24.38
2022-10-18T00:54:26.946Z,26.30
2022-10-18T00:56:53.869Z,26.92
2022-10-18T00:59:20.598Z,23.90
2022-10-18T01:01:47.345Z,22.55
2022-10-18T01:04:15.080Z,23.50
2022-10-18T01:07:02.279Z,22.83
2022-10-18T01:09:52.259Z,25.27
2022-10-18T01:12:28.695Z,22.10
2022-10-18T01:15:19.223Z,22.83
2022-10-18T01:18:08.543Z,21.80
2022-10-18T01:21:09.628Z,20.65
2022-10-18T01:24:09.013Z,20.10
2022-10-18T01:27:12.437Z,21.37
2022-10-18T01:30:24.435Z,23.65
2022-10-18T01:32:53.679Z,25.30
2022-10-18T01:35:24.390Z,22.90
2022-10-18T01:37:52.089Z,21.40
2022-10-18T01:40:20.812Z,23.83
2022-10-18T01:42:48.655Z,23.15
2022-10-18T01:45:15.863Z,24.57
2022-10-18T01:47:44.681Z,23.40
2022-10-18T01:50:11.861Z,24.13
2022-10-18T01:52:51.011Z,24.20
2022-10-18T01:55:18.468Z,18.10
2022-10-18T01:57:59.778Z,24.88
2022-10-18T02:00:36.530Z,20.52
2022-10-18T02:03:21.503Z,22.38
2022-10-18T02:06:08.446Z,23.05
2022-10-18T02:08:48.519Z,23.27
2022-10-18T02:11:16.130Z,21.17
2022-10-18T02:14:00.396Z,20.55
2022-10-18T02:16:34.636Z,25.77
2022-10-18T02:19:06.094Z,22.27
2022-10-18T02:21:33.473Z,27.63
2022-10-18T02:24:00.773Z,20.63
2022-10-18T02:26:27.291Z,21.80
2022-10-18T02:28:53.847Z,25.30
2022-10-18T02:31:29.245Z,27.92
2022-10-18T02:34:00.866Z,22.75
2022-10-18T02:36:42.657Z,23.33
2022-10-18T02:39:14.818Z,24.27
2022-10-18T02:41:41.581Z,21.15
2022-10-18T02:44:08.041Z,23.88
2022-10-18T02:46:34.549Z,24.63
2022-10-18T02:49:00.917Z,24.92
2022-10-18T02:51:27.378Z,24.40
2022-10-18T02:53:53.803Z,28.63
2022-10-18T02:56:20.237Z,27.80
2022-10-18T02:58:46.636Z,26.73
2022-10-18T03:01:13.143Z,26.00
2022-10-18T03:03:39.595Z,27.53
2022-10-18T03:06:06.284Z,28.23
2022-10-18T03:08:32.717Z,21.53
2022-10-18T03:10:59.134Z,31.43
2022-10-18T03:13:25.685Z,22.75
2022-10-18T03:15:52.154Z,22.77
2022-10-18T03:18:18.604Z,21.37
2022-10-18T03:20:45.086Z,23.52
2022-10-18T03:23:11.685Z,22.80
2022-10-18T03:25:40.536Z,23.30
2022-10-18T03:28:09.314Z,22.73
2022-10-18T03:30:35.698Z,23.50
2022-10-18T03:33:02.089Z,23.08
2022-10-18T03:35:28.451Z,26.70
2022-10-18T03:37:54.923Z,25.30
2022-10-18T03:40:21.631Z,23.53
2022-10-18T03:42:48.087Z,20.77
2022-10-18T03:45:15.500Z,27.00
2022-10-18T03:47:41.883Z,24.03
2022-10-18T03:50:08.894Z,26.13
2022-10-18T03:52:37.557Z,26.67
2022-10-18T03:55:04.285Z,32.27
2022-10-18T03:57:30.753Z,32.25
2022-10-18T03:59:57.110Z,23.23
2022-10-18T04:02:23.507Z,26.93
2022-10-18T04:04:50.013Z,30.07
2022-10-18T04:07:16.710Z,25.10
2022-10-18T04:09:43.106Z,28.48
2022-10-18T04:12:10.782Z,30.33
2022-10-18T04:14:37.153Z,32.38
2022-10-18T04:17:04.757Z,30.65
2022-10-18T04:19:31.202Z,30.30
2022-10-18T04:21:57.631Z,27.05
2022-10-18T04:24:24.175Z,28.52
2022-10-18T04:26:50.586Z,23.60
2022-10-18T04:29:17.047Z,33.60
2022-10-18T04:31:43.749Z,25.08
2022-10-18T04:34:10.953Z,23.92
2022-10-18T04:36:37.415Z,25.67
2022-10-18T04:39:04.007Z,26.60
2022-10-18T04:41:30.435Z,27.23
2022-10-18T04:43:57.153Z,24.23
2022-10-18T04:46:23.600Z,26.23
2022-10-18T04:48:51.139Z,24.98
2022-10-18T04:51:17.739Z,23.90
2022-10-18T04:53:44.092Z,25.27
2022-10-18T04:56:10.751Z,24.70
2022-10-18T04:58:45.069Z,27.93
2022-10-18T05:01:11.549Z,24.08
2022-10-18T05:03:38.066Z,29.48
2022-10-18T05:06:05.427Z,22.67
2022-10-18T05:08:33.504Z,27.70
2022-10-18T05:11:00.082Z,26.33
2022-10-18T05:13:28.274Z,24.38
2022-10-18T05:15:54.765Z,22.48
2022-10-18T05:18:21.263Z,25.67
2022-10-18T05:20:47.697Z,30.70
2022-10-18T05:23:14.219Z,20.15
2022-10-18T05:25:42.057Z,23.20
2022-10-18T05:28:34.454Z,26.02
2022-10-18T05:31:00.916Z,24.83
2022-10-18T05:33:27.326Z,26.70
2022-10-18T05:35:53.703Z,23.92
2022-10-18T05:38:20.663Z,24.33
2022-10-18T05:40:47.093Z,23.42
2022-10-18T05:43:13.545Z,22.33
2022-10-18T05:45:40.066Z,20.70
2022-10-18T05:48:07.802Z,26.13
2022-10-18T05:50:36.748Z,23.38
2022-10-18T05:53:12.549Z,25.27
2022-10-18T05:55:51.069Z,23.65
2022-10-18T05:58:17.441Z,18.48
2022-10-18T06:00:43.826Z,23.85
2022-10-18T06:03:10.246Z,26.80
2022-10-18T06:05:36.688Z,23.35
2022-10-18T06:08:05.333Z,21.83
2022-10-18T06:10:39.086Z,19.70
2022-10-18T06:13:05.450Z,20.58
2022-10-18T06:15:31.957Z,24.80
2022-10-18T06:17:59.042Z,23.02
2022-10-18T06:20:25.569Z,20.08
2022-10-18T06:22:53.444Z,25.55
2022-10-18T06:25:19.876Z,21.58
2022-10-18T06:27:46.364Z,25.35
2022-10-18T06:30:12.752Z,23.45
2022-10-18T06:32:40.134Z,19.88
2022-10-18T06:35:06.908Z,24.27
2022-10-18T06:37:35.413Z,22.85
2022-10-18T06:40:02.245Z,19.98
2022-10-18T06:42:28.750Z,19.60
2022-10-18T06:44:55.088Z,19.38
2022-10-18T06:47:21.467Z,18.58
2022-10-18T06:49:47.943Z,19.95
2022-10-18T06:52:17.304Z,18.52
2022-10-18T06:54:45.421Z,21.27
2022-10-18T06:57:12.118Z,23.70
2022-10-18T06:59:38.719Z,20.52
2022-10-18T07:02:05.125Z,19.52
2022-10-18T07:04:31.602Z,19.45
2022-10-18T07:06:58.101Z,19.58
2022-10-18T07:09:24.517Z,21.27
2022-10-18T07:11:52.748Z,19.45
2022-10-18T07:14:19.142Z,19.67
2022-10-18T07:16:45.576Z,19.13
2022-10-18T07:19:12.214Z,18.23
2022-10-18T07:21:38.619Z,16.77
2022-10-18T07:24:05.281Z,17.30
2022-10-18T07:26:33.238Z,19.75
2022-10-18T07:29:08.704Z,19.88
2022-10-18T07:31:35.489Z,19.35
2022-10-18T07:34:04.369Z,19.27
2022-10-18T07:36:33.315Z,17.63
2022-10-18T07:38:59.800Z,17.50
2022-10-18T07:41:26.606Z,18.90
2022-10-18T07:43:53.626Z,15.52
2022-10-18T07:46:21.539Z,25.02
2022-10-18T07:48:48.078Z,16.00
2022-10-18T07:51:14.962Z,17.08
2022-10-18T07:53:42.545Z,18.98
2022-10-18T07:56:15.789Z,14.52
2022-10-18T07:58:43.367Z,16.00
2022-10-18T08:01:10.307Z,15.50
2022-10-18T08:03:37.633Z,17.80
2022-10-18T08:06:05.787Z,19.38
2022-10-18T08:08:32.692Z,20.08
2022-10-18T08:11:07.756Z,16.42
2022-10-18T08:13:34.295Z,19.27
2022-10-18T08:16:02.255Z,15.73
2022-10-18T08:18:29.073Z,15.90
2022-10-18T08:20:55.471Z,15.05
2022-10-18T08:23:21.971Z,16.08
2022-10-18T08:25:49.519Z,17.00
2022-10-18T08:28:17.501Z,16.60
2022-10-18T08:30:46.154Z,13.85
2022-10-18T08:33:12.527Z,24.10
2022-10-18T08:35:39.321Z,14.52
2022-10-18T08:38:05.981Z,16.42
2022-10-18T08:44:12.132Z,16.98
2022-10-18T08:46:42.567Z,18.65
2022-10-18T08:49:16.215Z,16.33
2022-10-18T08:51:45.826Z,14.50
2022-10-18T08:54:13.963Z,14.18
2022-10-18T08:56:43.707Z,16.35
2022-10-18T08:59:11.547Z,14.82
2022-10-18T09:01:59.455Z,16.05
2022-10-18T09:04:47.355Z,18.23
2022-10-18T09:07:21.468Z,17.60
2022-10-18T09:10:16.759Z,14.40
2022-10-18T09:13:21.370Z,16.23
2022-10-18T09:16:05.061Z,16.55
2022-10-18T09:18:57.568Z,17.25
2022-10-18T09:21:29.813Z,19.08
2022-10-18T09:24:05.664Z,15.35
2022-10-18T09:26:42.220Z,14.80
2022-10-18T09:29:42.808Z,20.10
2022-10-18T09:35:57.122Z,17.27
2022-10-18T09:38:27.881Z,20.60
2022-10-18T09:41:02.085Z,19.08
2022-10-18T09:43:43.441Z,15.65
2022-10-18T09:46:10.064Z,17.92
2022-10-18T09:48:50.280Z,16.52
2022-10-18T09:51:22.246Z,16.30
2022-10-18T09:54:14.059Z,15.05
2022-10-18T09:57:00.783Z,16.05
2022-10-18T09:59:34.378Z,17.05
2022-10-18T10:02:00.927Z,14.10
2022-10-18T10:04:27.854Z,16.90
2022-10-18T10:06:57.034Z,17.23
2022-10-18T10:09:48.306Z,18.10
2022-10-18T10:12:34.411Z,18.27
2022-10-18T10:15:23.566Z,16.23
2022-10-18T10:17:58.365Z,15.63
2022-10-18T10:20:30.889Z,17.33
2022-10-18T10:23:06.221Z,13.25
2022-10-18T10:25:35.102Z,13.48
2022-10-18T10:28:11.270Z,16.00
2022-10-18T10:30:38.510Z,15.55
2022-10-18T10:33:06.120Z,13.73
2022-10-18T10:35:54.311Z,14.20
2022-10-18T10:38:25.594Z,13.68
2022-10-18T10:40:52.570Z,13.60
2022-10-18T10:43:39.234Z,14.43
2022-10-18T10:46:10.813Z,12.43
2022-10-18T10:49:38.646Z,13.30
2022-10-18T10:52:08.791Z,12.10
2022-10-18T10:54:47.558Z,11.73
2022-10-18T10:57:28.586Z,12.00
2022-10-18T10:59:59.564Z,11.27
2022-10-18T11:02:29.049Z,8.48
2022-10-18T11:04:56.812Z,5.80
2022-10-18T11:07:27.618Z,5.97
2022-10-18T11:10:13.478Z,7.53
2022-10-18T11:12:43.469Z,5.57
2022-10-18T11:15:10.108Z,5.57
2022-10-18T11:17:39.870Z,4.72
2022-10-18T11:20:19.653Z,3.55
2022-10-18T11:23:03.058Z,4.30
2022-10-18T11:25:52.700Z,5.00
2022-10-18T11:28:26.697Z,4.18
2022-10-18T11:31:05.247Z,6.00
2022-10-18T11:34:10.166Z,4.03
2022-10-18T11:36:56.849Z,5.03
2022-10-18T11:39:44.601Z,4.30
2022-10-18T11:42:21.218Z,3.08
2022-10-18T11:44:57.529Z,3.28
2022-10-18T11:47:46.280Z,4.95
2022-10-18T11:50:26.069Z,4.00
2022-10-18T11:53:07.251Z,1.73
2022-10-18T11:56:04.928Z,4.38
2022-10-18T11:58:50.034Z,2.15
2022-10-18T12:01:28.762Z,1.88
2022-10-18T12:04:20.665Z,2.40
2022-10-18T12:06:49.427Z,1.80
2022-10-18T12:09:29.288Z,1.65
2022-10-18T12:12:00.528Z,2.00
2022-10-18T12:14:34.368Z,1.63
2022-10-18T12:17:39.855Z,1.05
2022-10-18T12:19:53.288Z,0.70
2022-10-18T12:22:29.008Z,0.90
2022-10-18T12:24:55.578Z,2.25
2022-10-18T12:27:30.719Z,1.17
2022-10-18T12:30:03.502Z,1.48
2022-10-18T12:32:32.853Z,1.55
2022-10-18T12:35:14.858Z,1.10
2022-10-18T12:37:59.905Z,0.93
2022-10-18T12:40:38.401Z,2.35
2022-10-18T12:43:18.535Z,2.33
2022-10-18T12:45:54.840Z,1.38
2022-10-18T12:48:51.241Z,1.33
2022-10-18T12:51:19.938Z,1.92
2022-10-18T12:53:49.246Z,3.80
2022-10-18T12:56:27.801Z,2.08
2022-10-18T12:59:16.946Z,2.22
2022-10-18T13:01:55.524Z,1.33
2022-10-18T13:04:28.139Z,1.10
2022-10-18T13:06:57.583Z,1.58
2022-10-18T13:09:26.316Z,2.00
2022-10-18T13:12:02.092Z,1.23
2022-10-18T13:15:05.964Z,2.40
2022-10-18T13:17:55.134Z,3.08
2022-10-18T13:20:48.146Z,3.55
2022-10-18T13:23:38.061Z,1.65
2022-10-18T13:26:32.022Z,1.30
2022-10-18T13:29:14.074Z,1.75
2022-10-18T13:31:58.377Z,2.67
2022-10-18T13:34:29.075Z,3.92
2022-10-18T13:37:17.678Z,2.42
2022-10-18T13:39:44.475Z,1.25
2022-10-18T13:42:14.080Z,1.20
2022-10-18T13:44:41.985Z,1.05
2022-10-18T13:47:11.469Z,1.13
2022-10-18T13:50:26.494Z,1.67
2022-10-18T13:52:59.145Z,2.50
2022-10-18T13:55:51.999Z,1.75
2022-10-18T13:58:28.973Z,1.73
2022-10-18T14:01:40.390Z,1.33
2022-10-18T14:04:21.354Z,1.73
2022-10-18T14:06:48.483Z,1.73
2022-10-18T14:09:25.977Z,2.03
2022-10-18T14:12:30.853Z,1.73
2022-10-18T14:15:05.476Z,1.38
2022-10-18T14:17:42.305Z,1.13
2022-10-18T14:21:01.490Z,0.95
2022-10-18T14:23:44.739Z,1.38
2022-10-18T14:26:15.498Z,1.05
2022-10-18T14:28:59.044Z,1.48
2022-10-18T14:31:27.228Z,1.20
2022-10-18T14:33:57.922Z,3.05
2022-10-18T14:36:37.999Z,4.10
2022-10-18T14:39:05.875Z,2.15
2022-10-18T14:41:40.259Z,3.17
2022-10-18T14:44:16.129Z,2.67
2022-10-18T14:46:47.500Z,2.75
2022-10-18T14:49:15.625Z,2.10
2022-10-18T14:51:44.161Z,1.25
2022-10-18T14:54:16.684Z,1.27
2022-10-18T14:56:43.695Z,2.42
2022-10-18T14:59:16.790Z,1.02
2022-10-18T15:01:55.977Z,2.55
2022-10-18T15:04:27.706Z,1.40
2022-10-18T15:06:55.332Z,1.33
2022-10-18T15:09:23.275Z,1.30
2022-10-18T15:11:51.074Z,2.28
2022-10-18T15:14:19.028Z,2.40
2022-10-18T15:16:46.699Z,1.73
2022-10-18T15:19:16.243Z,2.85
2022-10-18T15:22:31.674Z,1.73
2022-10-18T15:25:05.898Z,1.60
2022-10-18T15:27:36.218Z,8.57
2022-10-18T15:30:20.331Z,2.63
2022-10-18T15:32:52.431Z,2.53
2022-10-18T15:35:26.073Z,1.90
2022-10-18T15:38:14.835Z,2.60
2022-10-18T15:40:42.294Z,3.35
2022-10-18T15:43:24.090Z,1.45
2022-10-18T15:45:52.664Z,1.55
2022-10-18T15:48:23.658Z,3.70
2022-10-18T15:50:55.519Z,1.85
2022-10-18T15:53:25.525Z,1.58
2022-10-18T15:55:55.341Z,2.40
2022-10-18T15:58:35.329Z,1.55
2022-10-18T16:01:02.798Z,2.00
2022-10-18T16:03:33.055Z,3.00
2022-10-18T16:06:04.654Z,2.85
2022-10-18T16:08:32.408Z,2.13
2022-10-18T16:10:59.373Z,2.65
2022-10-18T16:13:29.012Z,3.47
2022-10-18T16:15:59.607Z,3.05
2022-10-18T16:18:27.040Z,4.88
2022-10-18T16:20:57.498Z,2.75
2022-10-18T16:23:28.256Z,3.50
2022-10-18T16:25:54.974Z,2.00
2022-10-18T16:28:24.158Z,1.95
2022-10-18T16:31:03.491Z,3.97
2022-10-18T16:33:31.060Z,2.60
2022-10-18T16:35:57.774Z,3.03
2022-10-18T16:38:32.767Z,1.95
2022-10-18T16:41:04.669Z,1.30
2022-10-18T16:43:31.835Z,2.30
2022-10-18T16:45:58.284Z,2.97
2022-10-18T16:48:25.300Z,2.78
2022-10-18T16:50:54.625Z,4.60
2022-10-18T16:53:24.010Z,4.45
2022-10-18T16:56:01.029Z,4.97
2022-10-18T16:58:28.603Z,6.97
2022-10-18T17:00:55.262Z,8.13
2022-10-18T17:03:21.797Z,14.65
2022-10-18T17:05:48.364Z,9.02
2022-10-18T17:08:25.646Z,6.60
2022-10-18T17:10:54.603Z,6.47
2022-10-18T17:13:22.786Z,9.10
2022-10-18T17:15:50.084Z,6.75
2022-10-18T17:18:20.334Z,7.63
2022-10-18T17:20:46.752Z,6.20
2022-10-18T17:23:13.368Z,5.43
2022-10-18T17:25:52.686Z,5.22
2022-10-18T17:28:30.971Z,5.88
2022-10-18T17:30:57.615Z,6.35
2022-10-18T17:33:26.299Z,6.18
2022-10-18T17:35:52.900Z,6.10
2022-10-18T17:38:19.468Z,5.32
2022-10-18T17:40:48.825Z,4.93
2022-10-18T17:43:16.233Z,5.55
2022-10-18T17:45:48.779Z,5.05
2022-10-18T17:48:18.471Z,5.00
2022-10-18T17:50:46.434Z,6.20
2022-10-18T17:53:13.267Z,6.55
2022-10-18T17:55:40.128Z,6.53
2022-10-18T17:58:06.771Z,5.22
2022-10-18T18:00:33.407Z,6.45
2022-10-18T18:03:00.677Z,5.80
2022-10-18T18:05:30.992Z,4.72
2022-10-18T18:08:02.751Z,5.38
2022-10-18T18:10:33.226Z,4.50
2022-10-18T18:13:00.228Z,6.60
2022-10-18T18:15:27.911Z,4.88
2022-10-18T18:17:58.237Z,5.65
2022-10-18T18:20:26.011Z,6.80
2022-10-18T18:22:52.673Z,5.70
2022-10-18T18:25:23.626Z,4.10
2022-10-18T18:27:52.478Z,5.53
2022-10-18T18:30:22.036Z,4.75
2022-10-18T18:32:49.210Z,5.43
2022-10-18T18:35:15.761Z,4.60
2022-10-18T18:37:42.463Z,5.68
2022-10-18T18:40:10.639Z,4.38
2022-10-18T18:42:41.454Z,4.75
2022-10-18T18:45:11.030Z,7.00
2022-10-18T18:47:38.573Z,5.05
2022-10-18T18:50:07.119Z,6.75
2022-10-18T18:52:35.986Z,6.68
2022-10-18T18:55:02.874Z,5.00
2022-10-18T18:57:30.189Z,7.07
2022-10-18T18:59:56.796Z,5.63
2022-10-18T19:02:24.452Z,6.97
2022-10-18T19:04:53.757Z,5.22
2022-10-18T19:07:20.254Z,6.35
2022-10-18T19:09:48.436Z,7.90
2022-10-18T19:12:19.079Z,6.38
2022-10-18T19:14:47.347Z,6.55
2022-10-18T19:17:13.816Z,5.00
2022-10-18T19:19:43.504Z,4.75
2022-10-18T19:22:12.215Z,5.40
2022-10-18T19:24:39.816Z,5.13
2022-10-18T19:27:12.830Z,4.57
2022-10-18T19:29:40.523Z,5.50
2022-10-18T19:32:12.240Z,5.35
2022-10-18T19:34:39.900Z,3.80
2022-10-18T19:37:06.916Z,3.90
2022-10-18T19:39:35.175Z,5.05
2022-10-18T19:42:09.325Z,7.75
2022-10-18T19:44:44.120Z,5.05
2022-10-18T19:47:12.419Z,4.68
2022-10-18T19:49:39.331Z,5.68
2022-10-18T19:52:08.217Z,4.57
2022-10-18T19:54:34.860Z,5.88
2022-10-18T19:57:02.578Z,5.07
2022-10-18T19:59:29.277Z,4.88
2022-10-18T20:01:56.090Z,5.47
2022-10-18T20:04:23.072Z,4.53
2022-10-18T20:06:50.070Z,5.35
2022-10-18T20:09:21.559Z,5.20
2022-10-18T20:11:48.195Z,5.07
2022-10-18T20:14:14.673Z,6.68
2022-10-18T20:16:41.618Z,6.40
2022-10-18T20:19:08.545Z,7.53
2022-10-18T20:21:42.660Z,5.82
2022-10-18T20:24:10.886Z,4.88
2022-10-18T20:26:39.536Z,5.95
2022-10-18T20:29:07.838Z,4.43
2022-10-18T20:31:37.119Z,7.95
2022-10-18T20:34:06.288Z,5.57
2022-10-18T20:36:33.213Z,7.20
2022-10-18T20:39:00.017Z,3.80
2022-10-18T20:41:27.431Z,3.95
2022-10-18T20:43:59.107Z,8.23
2022-10-18T20:46:27.124Z,5.70
2022-10-18T20:48:54.392Z,5.20
2022-10-18T20:51:26.394Z,4.50
2022-10-18T20:53:53.617Z,5.30
2022-10-18T20:56:25.159Z,5.50
2022-10-18T20:58:53.373Z,4.93
2022-10-18T21:01:21.160Z,5.18
2022-10-18T21:03:49.818Z,4.93
2022-10-18T21:06:28.042Z,5.00
2022-10-18T21:09:03.640Z,5.77
2022-10-18T21:11:31.691Z,5.97
2022-10-18T21:14:02.016Z,4.60
2022-10-18T21:16:29.584Z,6.67
2022-10-18T21:18:56.036Z,6.35
2022-10-18T21:21:24.669Z,4.72
2022-10-18T21:23:51.895Z,6.57
2022-10-18T21:26:21.239Z,6.10
2022-10-18T21:28:50.260Z,4.93
2022-10-18T21:31:20.340Z,6.03
2022-10-18T21:33:47.272Z,6.90
2022-10-18T21:36:14.592Z,5.83
2022-10-18T21:38:44.138Z,6.72
2022-10-18T21:41:12.151Z,5.72
2022-10-18T21:43:45.549Z,6.95
2022-10-18T21:46:12.867Z,5.63
2022-10-18T21:48:44.328Z,8.93
2022-10-18T21:51:14.328Z,6.50
2022-10-18T21:53:45.822Z,10.25
2022-10-18T21:56:20.956Z,9.83
2022-10-18T21:58:47.904Z,9.23
2022-10-18T22:01:25.867Z,8.80
2022-10-18T22:03:54.119Z,8.18
2022-10-18T22:06:23.841Z,9.13
2022-10-18T22:08:53.135Z,10.63
2022-10-18T22:11:23.100Z,9.10
2022-10-18T22:13:49.632Z,11.85
2022-10-18T22:16:16.892Z,12.15
2022-10-18T22:18:45.053Z,15.02
2022-10-18T22:21:13.307Z,11.50
2022-10-18T22:23:44.682Z,10.80
2022-10-18T22:26:24.541Z,12.70
2022-10-18T22:28:59.265Z,12.67
2022-10-18T22:31:30.457Z,11.80
2022-10-18T22:33:59.705Z,12.10
2022-10-18T22:36:27.096Z,12.55
2022-10-18T22:38:54.048Z,12.85
2022-10-18T22:41:20.496Z,15.23
2022-10-18T22:43:47.758Z,15.90
2022-10-18T22:46:15.215Z,14.67
2022-10-18T22:48:42.347Z,11.45
2022-10-18T22:51:09.637Z,12.03
2022-10-18T22:53:36.983Z,11.47
2022-10-18T22:56:04.286Z,15.50
2022-10-18T22:58:32.551Z,15.50
2022-10-18T23:01:07.786Z,12.18
2022-10-18T23:03:38.092Z,11.63
2022-10-18T23:06:05.632Z,14.10
2022-10-18T23:08:32.356Z,14.25
2022-10-18T23:10:59.731Z,15.97
2022-10-18T23:13:31.095Z,14.90
2022-10-18T23:16:04.624Z,13.05
2022-10-18T23:18:32.246Z,15.90
2022-10-18T23:21:03.757Z,16.33
2022-10-18T23:23:35.231Z,14.38
2022-10-18T23:26:10.160Z,13.80
2022-10-18T23:28:39.257Z,13.43
2022-10-18T23:31:11.211Z,15.33
2022-10-18T23:33:38.352Z,15.93
2022-10-18T23:36:07.102Z,13.53
2022-10-18T23:38:35.409Z,14.53
2022-10-18T23:41:02.923Z,14.13
2022-10-18T23:43:29.464Z,13.32
2022-10-18T23:45:55.920Z,15.77
2022-10-18T23:48:22.599Z,16.77
2022-10-18T23:50:49.083Z,15.83
2022-10-18T23:53:15.779Z,14.63
2022-10-18T23:56:00.453Z,16.63
2022-10-18T23:58:28.139Z,12.60
